createdAt,value
2019-05-03T00:01:38.754Z,81.88
2019-05-03T00:04:25.278Z,82.13
2019-05-03T00:07:11.947Z,82.72
2019-05-03T00:09:57.874Z,83.29
2019-05-03T00:12:44.021Z,83.35
2019-05-03T00:15:53.310Z,83.67
2019-05-03T00:18:39.618Z,84.18
2019-05-03T00:21:25.485Z,83.98
2019-05-03T00:24:11.926Z,83.92
2019-05-03T00:26:59.035Z,83.49
2019-05-03T00:29:44.926Z,83.80
2019-05-03T00:32:32.367Z,83.84
2019-05-03T00:35:25.110Z,83.68
2019-05-03T00:38:13.712Z,84.41
2019-05-03T00:41:01.833Z,84.93
2019-05-03T00:43:47.842Z,84.61
2019-05-03T00:46:33.715Z,85.16
2019-05-03T00:49:20.233Z,84.00
2019-05-03T00:52:06.384Z,84.90
2019-05-03T00:54:52.979Z,84.43
2019-05-03T00:57:41.499Z,85.28
2019-05-03T01:00:27.678Z,84.77
2019-05-03T01:03:13.863Z,84.84
2019-05-03T01:06:02.300Z,84.26
2019-05-03T01:08:48.915Z,83.69
2019-05-03T01:11:35.219Z,84.63
2019-05-03T01:14:22.581Z,84.95
2019-05-03T01:17:08.643Z,85.30
2019-05-03T01:19:55.061Z,85.04
2019-05-03T01:22:42.491Z,84.63
2019-05-03T01:25:32.584Z,84.86
2019-05-03T01:28:16.814Z,85.23
2019-05-03T01:31:03.662Z,84.68
2019-05-03T01:33:51.560Z,85.31
2019-05-03T01:36:37.459Z,84.88
2019-05-03T01:39:23.487Z,85.61
2019-05-03T01:42:09.555Z,85.52
2019-05-03T01:44:55.642Z,85.12
2019-05-03T01:47:49.335Z,85.54
2019-05-03T01:51:02.837Z,85.54
2019-05-03T01:53:49.627Z,84.62
2019-05-03T01:56:35.892Z,84.97
2019-05-03T01:59:22.688Z,85.35
2019-05-03T02:02:37.964Z,85.19
2019-05-03T02:05:43.943Z,85.46
2019-05-03T02:08:30.320Z,85.05
2019-05-03T02:11:16.635Z,84.74
2019-05-03T02:14:03.496Z,84.25
2019-05-03T02:16:50.039Z,84.86
2019-05-03T02:19:36.863Z,84.33
2019-05-03T02:22:22.655Z,84.35
2019-05-03T02:25:08.971Z,84.70
2019-05-03T02:27:56.492Z,84.74
2019-05-03T02:30:44.184Z,84.26
2019-05-03T02:33:32.701Z,84.58
2019-05-03T02:36:19.677Z,84.57
2019-05-03T02:39:07.610Z,83.97
2019-05-03T02:41:59.725Z,84.20
2019-05-03T02:44:41.144Z,83.85
2019-05-03T02:47:47.384Z,83.73
2019-05-03T02:50:36.087Z,83.39
2019-05-03T02:53:21.590Z,83.00
2019-05-03T02:56:21.069Z,83.20
2019-05-03T02:58:56.284Z,83.06
2019-05-03T03:01:42.938Z,83.54
2019-05-03T03:04:30.291Z,83.36
2019-05-03T03:07:17.105Z,82.80
2019-05-03T03:10:05.292Z,83.17
2019-05-03T03:12:55.278Z,83.12
2019-05-03T03:15:42.401Z,83.18
2019-05-03T03:18:31.479Z,83.97
2019-05-03T03:21:22.468Z,84.25
2019-05-03T03:24:12.570Z,83.06
2019-05-03T03:26:58.613Z,82.96
2019-05-03T03:29:49.686Z,84.08
2019-05-03T03:32:38.591Z,83.88
2019-05-03T03:35:29.669Z,83.70
2019-05-03T03:38:15.531Z,83.94
2019-05-03T03:41:05.845Z,83.27
2019-05-03T03:43:55.755Z,83.07
2019-05-03T03:46:45.394Z,82.90
2019-05-03T03:49:31.530Z,82.96
2019-05-03T03:52:19.737Z,82.57
2019-05-03T03:55:06.545Z,81.02
2019-05-03T03:57:55.477Z,79.89
2019-05-03T04:00:41.397Z,79.97
2019-05-03T04:03:27.268Z,79.46
2019-05-03T04:06:15.444Z,79.11
2019-05-03T04:09:02.381Z,79.25
2019-05-03T04:11:48.615Z,78.54
2019-05-03T04:14:45.285Z,78.01
2019-05-03T04:17:56.838Z,79.66
2019-05-03T04:20:45.819Z,78.85
2019-05-03T04:23:32.120Z,78.92
2019-05-03T04:26:18.096Z,78.40
2019-05-03T04:29:05.392Z,78.53
2019-05-03T04:31:52.060Z,80.32
2019-05-03T04:34:38.298Z,81.74
2019-05-03T04:37:26.702Z,81.07
2019-05-03T04:40:15.650Z,80.46
2019-05-03T04:43:02.058Z,79.70
2019-05-03T04:46:08.405Z,78.36
2019-05-03T04:48:56.209Z,78.31
2019-05-03T04:51:46.256Z,78.20
2019-05-03T04:54:59.270Z,78.06
2019-05-03T04:57:50.080Z,78.77
2019-05-03T05:00:35.812Z,78.65
2019-05-03T05:03:22.385Z,78.20
2019-05-03T05:06:08.196Z,78.37
2019-05-03T05:08:55.181Z,77.56
2019-05-03T05:11:41.727Z,77.32
2019-05-03T05:14:28.020Z,77.48
2019-05-03T05:17:18.002Z,77.67
2019-05-03T05:20:18.043Z,77.13
2019-05-03T05:23:04.599Z,76.21
2019-05-03T05:25:57.253Z,74.02
2019-05-03T05:28:50.918Z,72.92
2019-05-03T05:31:37.233Z,73.79
2019-05-03T05:34:24.548Z,73.12
2019-05-03T05:37:11.011Z,72.95
2019-05-03T05:39:57.305Z,72.15
2019-05-03T05:42:45.386Z,71.17
2019-05-03T05:45:38.533Z,71.43
2019-05-03T05:48:37.777Z,70.95
2019-05-03T05:51:24.876Z,70.62
2019-05-03T05:54:14.349Z,70.85
2019-05-03T05:57:11.047Z,69.38
2019-05-03T06:00:00.285Z,69.69
2019-05-03T06:02:46.211Z,68.42
2019-05-03T06:05:32.781Z,68.20
2019-05-03T06:08:27.109Z,66.91
2019-05-03T06:11:34.613Z,65.04
2019-05-03T06:14:24.765Z,65.07
2019-05-03T06:17:29.001Z,64.13
2019-05-03T06:20:34.958Z,61.86
2019-05-03T06:23:27.938Z,58.91
2019-05-03T06:26:34.700Z,56.74
2019-05-03T06:29:20.821Z,58.19
2019-05-03T06:32:16.140Z,60.57
2019-05-03T06:35:02.233Z,58.62
2019-05-03T06:37:48.223Z,58.10
2019-05-03T06:40:35.422Z,56.30
2019-05-03T06:43:21.549Z,52.63
2019-05-03T06:46:07.753Z,49.96
2019-05-03T06:48:54.350Z,50.52
2019-05-03T06:51:45.654Z,51.42
2019-05-03T06:54:29.969Z,51.41
2019-05-03T06:57:18.097Z,47.99
2019-05-03T07:00:17.611Z,44.93
2019-05-03T07:03:15.179Z,48.02
2019-05-03T07:06:32.630Z,51.03
2019-05-03T07:09:29.825Z,49.80
2019-05-03T07:12:15.546Z,52.19
2019-05-03T07:15:01.536Z,51.85
2019-05-03T07:17:47.876Z,54.69
2019-05-03T07:20:46.453Z,50.59
2019-05-03T07:23:32.349Z,49.84
2019-05-03T07:26:18.095Z,46.87
2019-05-03T07:29:04.966Z,51.49
2019-05-03T07:31:54.753Z,49.69
2019-05-03T07:34:40.318Z,50.92
2019-05-03T07:37:26.008Z,48.30
2019-05-03T07:40:14.853Z,46.16
2019-05-03T07:43:00.822Z,47.58
2019-05-03T07:45:48.080Z,52.37
2019-05-03T07:48:35.430Z,55.36
2019-05-03T07:51:21.619Z,56.65
2019-05-03T07:54:07.842Z,52.56
2019-05-03T07:56:59.150Z,47.90
2019-05-03T07:59:45.540Z,52.92
2019-05-03T08:02:35.817Z,54.22
2019-05-03T08:05:21.747Z,54.32
2019-05-03T08:08:07.802Z,54.90
2019-05-03T08:10:54.988Z,55.63
2019-05-03T08:13:41.155Z,54.49
2019-05-03T08:16:27.688Z,56.65
2019-05-03T08:19:15.182Z,52.83
2019-05-03T08:22:01.026Z,48.26
2019-05-03T08:24:47.726Z,46.05
2019-05-03T08:27:35.397Z,45.89
2019-05-03T08:30:28.638Z,50.43
2019-05-03T08:33:28.959Z,52.15
2019-05-03T08:36:15.682Z,54.14
2019-05-03T08:39:01.877Z,54.03
2019-05-03T08:41:57.044Z,53.49
2019-05-03T08:44:42.883Z,53.89
2019-05-03T08:47:30.158Z,54.56
2019-05-03T08:50:21.418Z,53.75
2019-05-03T08:53:06.104Z,51.85
2019-05-03T08:55:55.401Z,54.31
2019-05-03T08:58:41.674Z,55.52
2019-05-03T09:01:28.166Z,55.23
2019-05-03T09:04:15.396Z,56.57
2019-05-03T09:07:01.797Z,55.46
2019-05-03T09:10:19.831Z,55.16
2019-05-03T09:13:07.029Z,54.12
2019-05-03T09:15:55.089Z,51.66
2019-05-03T09:18:41.542Z,48.09
2019-05-03T09:21:27.593Z,46.88
2019-05-03T09:24:15.189Z,48.56
2019-05-03T09:27:01.987Z,49.17
2019-05-03T09:29:47.695Z,48.38
2019-05-03T09:32:35.020Z,47.19
2019-05-03T09:35:30.566Z,50.22
2019-05-03T09:38:20.895Z,49.68
2019-05-03T09:41:15.030Z,50.70
2019-05-03T09:44:00.827Z,48.81
2019-05-03T09:46:47.378Z,49.43
2019-05-03T09:49:34.907Z,48.65
2019-05-03T09:52:21.123Z,45.81
2019-05-03T09:55:11.719Z,46.96
2019-05-03T09:57:57.911Z,46.49
2019-05-03T10:00:44.622Z,48.70
2019-05-03T10:03:31.368Z,46.65
2019-05-03T10:06:17.859Z,43.29
2019-05-03T10:09:05.377Z,41.84
2019-05-03T10:11:51.303Z,41.09
2019-05-03T10:14:37.459Z,41.77
2019-05-03T10:17:42.869Z,41.13
2019-05-03T10:20:28.828Z,42.82
2019-05-03T10:23:35.570Z,44.88
2019-05-03T10:26:21.494Z,46.22
2019-05-03T10:29:09.514Z,43.65
2019-05-03T10:32:11.285Z,40.35
2019-05-03T10:35:00.886Z,38.87
2019-05-03T10:37:46.946Z,40.20
2019-05-03T10:40:35.581Z,39.22
2019-05-03T10:43:21.393Z,40.77
2019-05-03T10:46:07.072Z,46.23
2019-05-03T10:48:55.817Z,46.62
2019-05-03T10:51:46.831Z,46.35
2019-05-03T10:54:32.526Z,45.41
2019-05-03T10:57:20.396Z,44.67
2019-05-03T11:00:38.675Z,41.34
2019-05-03T11:03:02.002Z,38.86
2019-05-03T11:05:48.657Z,41.70
2019-05-03T11:08:34.874Z,42.96
2019-05-03T11:11:20.815Z,46.07
2019-05-03T11:14:07.218Z,46.78
2019-05-03T11:16:55.274Z,45.21
2019-05-03T11:19:45.421Z,43.58
2019-05-03T11:22:31.734Z,38.85
2019-05-03T11:25:18.259Z,37.49
2019-05-03T11:28:12.519Z,35.83
2019-05-03T11:31:18.163Z,39.19
2019-05-03T11:34:07.363Z,42.83
2019-05-03T11:37:14.540Z,43.83
2019-05-03T11:40:01.424Z,43.56
2019-05-03T11:42:48.086Z,46.14
2019-05-03T11:45:35.325Z,46.86
2019-05-03T11:48:21.597Z,46.23
2019-05-03T11:51:07.992Z,47.26
2019-05-03T11:53:54.539Z,45.50
2019-05-03T11:56:40.433Z,44.34
2019-05-03T11:59:40.435Z,43.07
2019-05-03T12:02:52.134Z,43.00
2019-05-03T12:05:39.682Z,41.73
2019-05-03T12:08:25.892Z,37.32
2019-05-03T12:11:11.979Z,39.91
2019-05-03T12:14:10.913Z,41.84
2019-05-03T12:17:18.233Z,41.29
2019-05-03T12:19:56.672Z,42.71
2019-05-03T12:22:41.834Z,40.56
2019-05-03T12:25:29.438Z,40.25
2019-05-03T12:28:17.021Z,40.93
2019-05-03T12:31:04.910Z,41.72
2019-05-03T12:33:51.035Z,40.89
2019-05-03T12:36:39.159Z,41.45
2019-05-03T12:39:30.149Z,38.95
2019-05-03T12:42:18.925Z,37.26
2019-05-03T12:45:05.494Z,38.91
2019-05-03T12:47:51.967Z,39.91
2019-05-03T12:50:38.993Z,41.68
2019-05-03T12:53:25.315Z,42.85
2019-05-03T12:56:13.928Z,42.52
2019-05-03T12:59:16.599Z,42.92
2019-05-03T13:02:15.522Z,40.52
2019-05-03T13:05:01.746Z,40.28
2019-05-03T13:08:08.011Z,41.17
2019-05-03T13:10:55.703Z,40.45
2019-05-03T13:13:45.214Z,40.64
2019-05-03T13:16:32.318Z,38.87
2019-05-03T13:19:20.222Z,37.90
2019-05-03T13:22:06.895Z,39.08
2019-05-03T13:24:54.571Z,37.27
2019-05-03T13:27:41.038Z,36.22
2019-05-03T13:30:27.119Z,36.16
2019-05-03T13:33:15.116Z,38.56
2019-05-03T13:36:01.044Z,40.25
2019-05-03T13:38:47.239Z,40.28
2019-05-03T13:41:34.961Z,40.67
2019-05-03T13:44:21.114Z,39.65
2019-05-03T13:47:06.772Z,41.26
2019-05-03T13:49:55.161Z,41.31
2019-05-03T13:52:41.632Z,41.38
2019-05-03T13:55:28.016Z,40.44
2019-05-03T13:58:15.416Z,42.90
2019-05-03T14:01:01.421Z,43.20
2019-05-03T14:03:47.844Z,42.05
2019-05-03T14:06:36.528Z,41.28
2019-05-03T14:09:21.965Z,41.88
2019-05-03T14:12:08.468Z,42.86
2019-05-03T14:14:56.086Z,44.91
2019-05-03T14:17:42.592Z,44.71
2019-05-03T14:20:47.119Z,45.13
2019-05-03T14:23:53.285Z,44.93
2019-05-03T14:26:41.092Z,45.21
2019-05-03T14:29:28.340Z,45.64
2019-05-03T14:32:25.726Z,44.94
2019-05-03T14:35:17.229Z,45.83
2019-05-03T14:38:05.739Z,46.32
2019-05-03T14:40:50.964Z,46.63
2019-05-03T14:43:37.511Z,46.14
2019-05-03T14:46:32.827Z,45.22
2019-05-03T14:49:14.707Z,46.51
2019-05-03T14:52:00.904Z,46.91
2019-05-03T14:54:49.312Z,46.90
2019-05-03T14:57:44.471Z,47.87
2019-05-03T15:00:42.489Z,46.65
2019-05-03T15:03:28.823Z,45.40
2019-05-03T15:06:15.511Z,43.18
2019-05-03T15:09:02.104Z,43.26
2019-05-03T15:11:48.381Z,43.82
2019-05-03T15:14:34.628Z,46.47
2019-05-03T15:17:21.376Z,46.69
2019-05-03T15:20:08.109Z,48.16
2019-05-03T15:22:54.847Z,49.78
2019-05-03T15:25:40.921Z,48.66
2019-05-03T15:28:27.122Z,47.73
2019-05-03T15:31:13.692Z,46.21
2019-05-03T15:33:59.358Z,47.17
2019-05-03T15:36:46.733Z,45.94
2019-05-03T15:39:32.392Z,45.72
2019-05-03T15:42:19.424Z,45.84
2019-05-03T15:45:41.377Z,46.29
2019-05-03T15:48:35.504Z,46.59
2019-05-03T15:51:21.349Z,46.66
2019-05-03T15:54:07.344Z,47.55
2019-05-03T15:56:54.385Z,48.29
2019-05-03T15:59:40.448Z,47.92
2019-05-03T16:02:26.261Z,46.59
2019-05-03T16:05:15.438Z,46.77
2019-05-03T16:08:01.838Z,45.70
2019-05-03T16:10:47.803Z,45.59
2019-05-03T16:13:35.278Z,47.25
2019-05-03T16:16:22.204Z,46.58
2019-05-03T16:19:08.340Z,46.36
2019-05-03T16:21:54.592Z,45.50
2019-05-03T16:24:40.731Z,46.30
2019-05-03T16:27:47.329Z,47.91
2019-05-03T16:30:51.116Z,48.38
2019-05-03T16:33:36.964Z,47.34
2019-05-03T16:36:24.897Z,48.58
2019-05-03T16:39:15.395Z,48.43
2019-05-03T16:42:01.341Z,49.06
2019-05-03T16:44:47.945Z,48.47
2019-05-03T16:47:35.482Z,49.39
2019-05-03T16:50:21.874Z,48.16
2019-05-03T16:53:08.377Z,48.20
2019-05-03T16:55:57.765Z,49.25
2019-05-03T16:58:44.683Z,49.80
2019-05-03T17:01:32.509Z,49.53
2019-05-03T17:04:55.670Z,49.84
2019-05-03T17:08:04.613Z,49.79
2019-05-03T17:10:51.365Z,50.81
2019-05-03T17:13:37.958Z,51.12
2019-05-03T17:16:24.916Z,51.22
2019-05-03T17:19:11.578Z,51.08
2019-05-03T17:21:58.033Z,51.02
2019-05-03T17:24:45.981Z,51.56
2019-05-03T17:27:31.924Z,51.81
2019-05-03T17:30:17.979Z,52.14
2019-05-03T17:33:04.540Z,53.03
2019-05-03T17:35:54.378Z,51.43
2019-05-03T17:38:41.470Z,51.89
2019-05-03T17:41:54.664Z,52.21
2019-05-03T17:44:42.325Z,52.52
2019-05-03T17:47:28.522Z,52.37
2019-05-03T17:50:14.836Z,52.63
2019-05-03T17:53:25.211Z,52.63
2019-05-03T17:56:16.076Z,53.13
2019-05-03T17:59:24.421Z,52.87
2019-05-03T18:02:42.289Z,53.29
2019-05-03T18:05:37.817Z,53.84
2019-05-03T18:08:52.565Z,54.27
2019-05-03T18:11:42.226Z,54.53
2019-05-03T18:16:52.020Z,55.57
2019-05-03T18:19:38.054Z,55.57
2019-05-03T18:22:24.361Z,55.60
2019-05-03T18:25:10.507Z,55.69
2019-05-03T18:27:58.042Z,55.74
2019-05-03T18:30:45.460Z,56.17
2019-05-03T18:33:31.614Z,55.94
2019-05-03T18:36:18.090Z,56.73
2019-05-03T18:39:06.839Z,56.70
2019-05-03T18:41:54.402Z,56.73
2019-05-03T18:44:50.402Z,57.13
2019-05-03T18:47:36.361Z,56.69
2019-05-03T18:50:21.741Z,56.98
2019-05-03T18:53:11.231Z,56.79
2019-05-03T18:55:58.174Z,56.67
2019-05-03T18:58:44.864Z,57.85
2019-05-03T19:01:32.301Z,57.65
2019-05-03T19:04:34.850Z,57.91
2019-05-03T19:07:38.735Z,58.22
2019-05-03T19:10:37.474Z,58.22
2019-05-03T19:13:30.339Z,58.41
2019-05-03T19:16:28.139Z,58.48
2019-05-03T19:19:15.568Z,58.90
2019-05-03T19:22:01.667Z,58.88
2019-05-03T19:24:47.522Z,59.33
2019-05-03T19:27:34.613Z,59.49
2019-05-03T19:30:21.209Z,59.76
2019-05-03T19:33:06.851Z,60.07
2019-05-03T19:35:52.390Z,59.44
2019-05-03T19:38:38.891Z,59.54
2019-05-03T19:41:25.208Z,59.91
2019-05-03T19:44:10.847Z,59.76
2019-05-03T19:46:56.797Z,58.40
2019-05-03T19:49:42.551Z,59.09
2019-05-03T19:52:34.323Z,57.95
2019-05-03T19:55:20.837Z,58.33
2019-05-03T19:58:06.363Z,58.85
2019-05-03T20:01:07.486Z,58.41
2019-05-03T20:03:58.085Z,59.09
2019-05-03T20:06:57.010Z,59.67
2019-05-03T20:09:44.562Z,61.47
2019-05-03T20:12:30.371Z,61.81
2019-05-03T20:15:16.131Z,62.95
2019-05-03T20:18:01.949Z,64.73
2019-05-03T20:20:47.351Z,65.93
2019-05-03T20:23:34.319Z,66.48
2019-05-03T20:26:20.461Z,67.68
2019-05-03T20:29:06.196Z,68.39
2019-05-03T20:31:52.606Z,69.76
2019-05-03T20:34:38.950Z,70.10
2019-05-03T20:37:25.143Z,71.07
2019-05-03T20:40:12.170Z,70.23
2019-05-03T20:43:11.027Z,70.69
2019-05-03T20:46:05.028Z,71.16
2019-05-03T20:48:52.435Z,71.58
2019-05-03T20:51:38.299Z,71.54
2019-05-03T20:54:24.671Z,72.06
2019-05-03T20:57:10.382Z,71.44
2019-05-03T20:59:56.419Z,72.25
2019-05-03T21:02:51.606Z,71.90
2019-05-03T21:05:34.745Z,72.47
2019-05-03T21:08:20.958Z,73.45
2019-05-03T21:11:07.386Z,73.80
2019-05-03T21:13:53.459Z,73.17
2019-05-03T21:16:57.087Z,74.80
2019-05-03T21:19:55.174Z,74.45
2019-05-03T21:22:44.310Z,74.80
2019-05-03T21:26:02.734Z,75.11
2019-05-03T21:28:25.162Z,74.79
2019-05-03T21:31:10.989Z,75.23
2019-05-03T21:33:56.892Z,76.13
2019-05-03T21:36:42.276Z,76.83
2019-05-03T21:39:29.280Z,76.61
2019-05-03T21:42:20.526Z,77.35
2019-05-03T21:45:07.554Z,77.36
2019-05-03T21:47:58.865Z,77.98
2019-05-03T21:50:44.810Z,78.50
2019-05-03T21:53:30.716Z,78.58
2019-05-03T21:56:16.408Z,78.58
2019-05-03T21:59:02.139Z,78.68
2019-05-03T22:01:48.765Z,79.77
2019-05-03T22:04:35.185Z,79.63
2019-05-03T22:07:21.508Z,80.00
2019-05-03T22:10:07.186Z,80.46
2019-05-03T22:12:54.446Z,80.53
2019-05-03T22:15:48.301Z,80.20
2019-05-03T22:18:35.063Z,80.67
2019-05-03T22:21:41.672Z,81.43
2019-05-03T22:24:35.372Z,82.65
2019-05-03T22:27:21.539Z,84.04
2019-05-03T22:30:07.832Z,83.38
2019-05-03T22:32:54.878Z,84.59
2019-05-03T22:35:40.412Z,85.31
2019-05-03T22:38:26.164Z,85.30
2019-05-03T22:41:11.863Z,85.63
2019-05-03T22:43:57.663Z,84.87
2019-05-03T22:46:44.598Z,85.04
2019-05-03T22:49:30.555Z,85.73
2019-05-03T22:52:15.936Z,86.34
2019-05-03T22:55:02.371Z,86.07
2019-05-03T22:57:47.853Z,86.55
2019-05-03T23:00:35.273Z,86.20
2019-05-03T23:03:21.160Z,86.77
2019-05-03T23:06:19.325Z,86.00
2019-05-03T23:08:56.018Z,86.09
2019-05-03T23:11:41.791Z,86.57
2019-05-03T23:14:28.509Z,87.39
2019-05-03T23:17:14.914Z,87.37
2019-05-03T23:20:07.357Z,87.14
2019-05-03T23:22:54.744Z,87.42
2019-05-03T23:25:40.593Z,87.64
2019-05-03T23:28:26.867Z,87.47
2019-05-03T23:31:14.560Z,87.48
2019-05-03T23:34:02.301Z,87.38
2019-05-03T23:36:48.336Z,87.99
2019-05-03T23:39:33.810Z,87.59
2019-05-03T23:42:19.663Z,88.28
2019-05-03T23:45:05.498Z,88.22
2019-05-03T23:47:51.093Z,88.03
2019-05-03T23:50:36.934Z,88.00
2019-05-03T23:53:22.737Z,88.33
2019-05-03T23:56:17.082Z,88.41
2019-05-03T23:59:03.089Z,88.45
